Time;durP1;ratioP1;P1;durP2;ratioP2;P2;SDS_P1;SDS_P2;PMS_P1;PMS_P2;Temp;Humidity;BMP_temperature;BMP_pressure;BME280_temperature;BME280_humidity;BME280_pressure;Samples;Min_cycle;Max_cycle;Signal;HPM_P1;HPM_P2
2022/01/27 00:05:20;;;;;;;38.47;20.35;;;6.20;99.90;;;;;;5110780;28;20052;-59
2022/01/27 00:13:12;;;;;;;47.60;22.65;;;6.10;99.90;;;;;;5110562;28;20051;-59
2022/01/27 00:15:39;;;;;;;42.28;21.92;;;5.00;99.90;;;;;;5111551;28;20043;-58
2022/01/27 00:18:13;;;;;;;44.65;23.92;;;6.20;99.90;;;;;;5112066;28;20444;-58
2022/01/27 00:20:39;;;;;;;44.88;22.77;;;5.40;99.90;;;;;;5111401;28;20456;-59
2022/01/27 00:23:05;;;;;;;44.60;23.80;;;5.90;99.90;;;;;;5093402;28;20051;-59
2022/01/27 00:25:30;;;;;;;46.08;22.60;;;5.00;99.90;;;;;;5111175;28;20063;-58
2022/01/27 00:27:56;;;;;;;42.15;22.50;;;5.00;99.90;;;;;;5111826;28;20051;-58
2022/01/27 00:30:22;;;;;;;40.58;22.00;;;5.00;99.90;;;;;;5111776;28;20366;-59
2022/01/27 00:32:47;;;;;;;40.13;21.40;;;5.00;99.90;;;;;;5111590;28;20040;-58
2022/01/27 00:35:13;;;;;;;43.47;22.08;;;5.00;99.90;;;;;;5111595;28;20138;-59
2022/01/27 00:37:39;;;;;;;45.60;21.50;;;5.00;99.90;;;;;;5110685;28;20132;-58
2022/01/27 00:40:07;;;;;;;43.38;22.98;;;5.00;99.90;;;;;;5110536;28;20061;-58
2022/01/27 00:42:34;;;;;;;45.90;24.30;;;5.10;99.90;;;;;;5111289;28;20051;-58
2022/01/27 00:44:59;;;;;;;43.30;23.90;;;5.10;99.90;;;;;;5111142;28;20058;-58
2022/01/27 00:47:25;;;;;;;42.00;23.42;;;5.00;99.90;;;;;;5110978;28;20039;-58
2022/01/27 00:49:51;;;;;;;42.58;23.15;;;5.10;99.90;;;;;;5111336;28;20046;-59
2022/01/27 00:52:25;;;;;;;47.55;23.08;;;5.10;99.90;;;;;;5111364;28;20494;-58
2022/01/27 00:54:52;;;;;;;44.05;23.30;;;5.00;99.90;;;;;;5111139;28;20104;-58
2022/01/27 00:57:35;;;;;;;46.28;24.13;;;5.00;99.90;;;;;;5111249;28;20101;-59
2022/01/27 01:00:03;;;;;;;34.53;17.75;;;5.00;99.90;;;;;;5092501;28;20134;-58
2022/01/27 01:05:21;;;;;;;48.63;22.45;;;5.60;99.90;;;;;;5111212;28;20047;-59
2022/01/27 01:07:51;;;;;;;46.28;22.80;;;5.00;99.90;;;;;;5110577;28;20081;-59
2022/01/27 01:11:05;;;;;;;50.08;23.30;;;5.00;99.90;;;;;;5092602;28;20457;-58
2022/01/27 01:15:52;;;;;;;44.50;21.75;;;5.00;99.90;;;;;;5110901;28;20054;-58
2022/01/27 01:18:35;;;;;;;42.00;21.75;;;5.00;99.90;;;;;;5092401;28;20036;-59
2022/01/27 01:34:30;;;;;;;44.50;23.00;;;5.00;99.90;;;;;;5082044;28;20043;-58
2022/01/27 01:36:57;;;;;;;44.88;21.98;;;5.00;99.90;;;;;;5110799;28;20062;-59
2022/01/27 01:39:26;;;;;;;36.58;19.13;;;5.00;99.90;;;;;;5091752;28;20044;-58
2022/01/27 01:41:55;;;;;;;43.13;20.85;;;4.90;99.90;;;;;;5092082;28;20086;-58
2022/01/27 01:44:21;;;;;;;37.50;20.83;;;5.80;99.90;;;;;;5110760;28;20043;-58
2022/01/27 01:46:47;;;;;;;41.03;20.23;;;5.80;99.90;;;;;;5110882;28;20443;-58
2022/01/27 01:49:13;;;;;;;37.60;19.48;;;6.20;99.90;;;;;;5110687;28;20035;-58
2022/01/27 01:51:40;;;;;;;39.42;22.02;;;4.90;99.90;;;;;;5110509;28;20044;-58
2022/01/27 01:54:07;;;;;;;36.17;17.65;;;4.90;99.90;;;;;;5092197;28;20039;-59
2022/01/27 01:56:34;;;;;;;37.60;16.33;;;4.90;99.90;;;;;;5110090;28;20818;-59
2022/01/27 01:59:00;;;;;;;38.00;20.75;;;4.90;99.90;;;;;;5110506;28;20155;-59
2022/01/27 02:01:26;;;;;;;33.80;18.55;;;5.00;99.90;;;;;;5091756;28;20490;-59
2022/01/27 02:03:52;;;;;;;41.53;19.73;;;5.10;99.90;;;;;;5110221;28;20046;-58
2022/01/27 02:06:32;;;;;;;38.70;19.30;;;5.10;99.90;;;;;;5091735;28;20055;-58
2022/01/27 02:09:18;;;;;;;37.60;19.85;;;4.80;99.90;;;;;;5091632;28;20055;-58
2022/01/27 02:19:59;;;;;;;36.08;19.23;;;4.80;99.90;;;;;;5110725;28;20120;-58
2022/01/27 02:22:25;;;;;;;46.35;22.42;;;4.90;99.90;;;;;;5110301;28;20050;-58
2022/01/27 02:24:51;;;;;;;35.92;19.63;;;5.90;99.90;;;;;;5110126;28;20039;-58
2022/01/27 02:27:18;;;;;;;43.35;21.98;;;5.00;99.90;;;;;;5110195;28;20473;-58
2022/01/27 02:29:44;;;;;;;38.22;19.00;;;4.60;99.90;;;;;;5110068;28;20044;-58
2022/01/27 02:32:12;;;;;;;40.63;19.90;;;4.90;99.90;;;;;;5109960;28;20043;-59
2022/01/27 02:34:38;;;;;;;39.85;20.20;;;4.90;99.90;;;;;;5110234;28;20043;-58
2022/01/27 02:37:04;;;;;;;32.72;16.85;;;5.00;99.90;;;;;;5091934;28;20093;-58
2022/01/27 02:39:30;;;;;;;44.42;21.02;;;4.80;99.90;;;;;;5109597;28;20039;-58
2022/01/27 02:42:02;;;;;;;40.70;22.25;;;4.70;99.90;;;;;;5109695;28;20296;-58
2022/01/27 02:44:45;;;;;;;41.72;22.65;;;5.00;99.90;;;;;;5109895;28;20040;-58
2022/01/27 02:47:12;;;;;;;42.97;18.20;;;5.50;99.90;;;;;;5109678;28;20054;-58
2022/01/27 02:49:38;;;;;;;31.60;17.23;;;4.90;99.90;;;;;;5109701;28;20040;-58
2022/01/27 02:52:04;;;;;;;38.38;20.80;;;5.00;99.90;;;;;;5109914;28;20092;-58
2022/01/27 02:54:30;;;;;;;36.30;19.00;;;5.00;99.90;;;;;;5091544;28;20047;-58
2022/01/27 02:56:56;;;;;;;38.78;20.75;;;4.60;99.90;;;;;;5109220;28;20550;-59
2022/01/27 02:59:21;;;;;;;41.53;22.27;;;4.90;99.90;;;;;;5091664;28;20059;-58
2022/01/27 03:01:49;;;;;;;42.78;21.17;;;4.90;99.90;;;;;;5110493;28;20477;-58
2022/01/27 03:04:16;;;;;;;40.35;19.55;;;5.00;99.90;;;;;;5094790;28;20051;-58
2022/01/27 03:06:43;;;;;;;40.47;21.83;;;5.90;99.90;;;;;;5113389;28;20055;-58
2022/01/27 03:09:09;;;;;;;43.08;22.70;;;5.00;99.90;;;;;;5113676;28;20401;-58
2022/01/27 03:11:38;;;;;;;41.60;21.77;;;6.00;99.90;;;;;;5113335;28;20080;-58
2022/01/27 03:14:05;;;;;;;38.40;22.02;;;5.00;99.90;;;;;;5113046;28;20040;-58
2022/01/27 03:16:30;;;;;;;45.22;22.20;;;5.00;99.90;;;;;;5113190;28;20397;-58
2022/01/27 03:18:56;;;;;;;44.22;23.27;;;4.90;99.90;;;;;;5112727;28;20043;-58
2022/01/27 03:21:22;;;;;;;42.05;22.00;;;4.90;99.90;;;;;;5094529;28;20047;-58
2022/01/27 03:23:48;;;;;;;40.33;23.27;;;4.90;99.90;;;;;;5112795;28;20035;-58
2022/01/27 03:26:14;;;;;;;43.85;23.48;;;5.30;99.90;;;;;;5112753;28;20051;-58
2022/01/27 03:28:40;;;;;;;47.58;22.55;;;6.00;99.90;;;;;;5112646;28;20509;-59
2022/01/27 03:31:05;;;;;;;45.55;21.42;;;5.00;99.90;;;;;;5112523;28;20051;-58
2022/01/27 03:33:31;;;;;;;40.03;22.75;;;5.40;99.90;;;;;;5112933;28;20047;-58
2022/01/27 03:35:57;;;;;;;41.75;21.95;;;5.00;99.90;;;;;;5112505;28;20043;-58
2022/01/27 03:38:23;;;;;;;40.33;21.20;;;5.00;99.90;;;;;;5112181;28;20039;-58
2022/01/27 03:40:49;;;;;;;38.15;20.73;;;4.80;99.90;;;;;;5112579;28;20050;-58
2022/01/27 03:43:14;;;;;;;38.47;20.95;;;5.00;99.90;;;;;;5112766;28;20051;-58
2022/01/27 03:45:40;;;;;;;45.95;22.45;;;5.00;99.90;;;;;;5093943;28;20048;-58
2022/01/27 03:48:07;;;;;;;44.65;21.67;;;5.60;99.90;;;;;;5112525;28;20046;-59
2022/01/27 03:50:32;;;;;;;52.95;23.80;;;5.00;99.90;;;;;;5112924;28;20046;-58
2022/01/27 03:52:58;;;;;;;39.80;21.02;;;5.00;99.90;;;;;;5112545;28;20122;-59
2022/01/27 03:55:24;;;;;;;37.78;18.83;;;5.50;99.90;;;;;;5093973;28;20468;-58
2022/01/27 03:57:50;;;;;;;43.15;19.65;;;5.00;99.90;;;;;;5093658;28;20043;-59
2022/01/27 04:00:16;;;;;;;41.92;20.75;;;5.60;99.90;;;;;;5112103;28;20470;-58
2022/01/27 04:02:54;;;;;;;34.00;16.60;;;5.00;99.90;;;;;;5093752;28;20086;-58
2022/01/27 04:05:20;;;;;;;41.90;22.73;;;5.00;99.90;;;;;;5093976;28;20109;-59
2022/01/27 04:07:46;;;;;;;36.60;19.98;;;5.10;99.90;;;;;;5094324;28;20039;-58
2022/01/27 04:10:12;;;;;;;40.67;20.13;;;5.00;99.90;;;;;;5111876;28;20087;-58
2022/01/27 04:12:37;;;;;;;44.55;20.02;;;5.10;99.90;;;;;;5112225;28;20074;-59
2022/01/27 04:15:04;;;;;;;44.92;22.20;;;5.00;99.90;;;;;;5111879;28;20078;-59
2022/01/27 04:17:30;;;;;;;45.60;22.65;;;5.10;99.90;;;;;;5077051;28;20444;-58
2022/01/27 04:19:56;;;;;;;37.05;18.27;;;5.00;99.90;;;;;;5112153;28;20130;-58
2022/01/27 04:22:21;;;;;;;41.53;20.23;;;5.10;99.90;;;;;;5112195;28;20079;-58
2022/01/27 04:24:47;;;;;;;49.45;23.25;;;5.50;99.90;;;;;;5112484;28;20120;-59
2022/01/27 04:27:19;;;;;;;45.22;24.30;;;5.10;99.90;;;;;;5111992;28;20047;-58
2022/01/27 04:29:47;;;;;;;45.28;23.45;;;5.10;99.90;;;;;;5076826;28;20050;-58
2022/01/27 04:32:19;;;;;;;39.03;21.48;;;5.10;99.90;;;;;;5093555;28;20047;-59
2022/01/27 04:34:45;;;;;;;50.83;24.05;;;5.60;99.90;;;;;;5093778;28;20385;-58
2022/01/27 04:37:12;;;;;;;41.28;22.10;;;5.10;99.90;;;;;;5093217;28;20043;-58
2022/01/27 04:39:56;;;;;;;41.35;21.88;;;5.10;99.90;;;;;;5076520;28;20110;-58
2022/01/27 04:42:53;;;;;;;43.80;20.70;;;5.10;99.90;;;;;;5093463;28;20050;-59
2022/01/27 04:45:17;;;;;;;41.58;22.33;;;5.60;99.90;;;;;;5092301;28;20052;-58
2022/01/27 04:47:47;;;;;;;44.35;22.90;;;5.20;99.90;;;;;;5093300;28;20048;-58
2022/01/27 04:50:13;;;;;;;44.25;23.90;;;6.00;99.90;;;;;;5111177;28;20051;-59
2022/01/27 04:52:44;;;;;;;42.55;21.08;;;5.20;99.90;;;;;;5111178;28;20051;-58
2022/01/27 04:55:12;;;;;;;44.67;22.90;;;5.20;99.90;;;;;;5110949;28;20051;-59
2022/01/27 04:57:41;;;;;;;47.97;22.02;;;5.20;99.90;;;;;;5092885;28;20497;-58
2022/01/27 05:00:09;;;;;;;44.50;21.67;;;6.80;99.90;;;;;;5111052;28;20044;-58
2022/01/27 05:02:44;;;;;;;45.08;21.30;;;5.10;99.90;;;;;;5111052;28;20050;-58
2022/01/27 05:05:10;;;;;;;45.47;20.67;;;5.10;99.90;;;;;;5092527;28;20393;-58
2022/01/27 05:07:36;;;;;;;50.92;22.35;;;8.70;99.90;;;;;;5111380;28;20425;-58
2022/01/27 05:10:10;;;;;;;45.05;21.55;;;5.20;99.90;;;;;;5111055;28;20126;-58
2022/01/27 05:12:49;;;;;;;41.90;19.08;;;5.10;99.90;;;;;;5092753;28;20039;-58
2022/01/27 05:15:14;;;;;;;42.72;20.88;;;5.10;99.90;;;;;;5111040;28;20118;-59
2022/01/27 05:17:40;;;;;;;49.03;22.15;;;5.10;99.90;;;;;;5092752;28;20139;-58
2022/01/27 05:20:06;;;;;;;41.83;20.70;;;5.10;99.90;;;;;;5110963;28;20035;-58
2022/01/27 05:22:32;;;;;;;41.10;20.17;;;5.10;99.90;;;;;;5093020;28;20039;-58
2022/01/27 05:24:58;;;;;;;54.83;22.70;;;5.10;99.90;;;;;;5110750;28;20470;-59
2022/01/27 05:27:26;;;;;;;49.92;22.05;;;6.60;99.90;;;;;;5111288;28;20154;-58
2022/01/27 05:29:52;;;;;;;46.13;21.02;;;4.90;99.90;;;;;;5092689;28;20111;-58
2022/01/27 05:32:21;;;;;;;52.17;23.67;;;5.10;99.90;;;;;;5110479;28;20035;-59
2022/01/27 05:34:47;;;;;;;42.72;21.63;;;5.10;99.90;;;;;;5110684;28;20044;-58
2022/01/27 05:37:12;;;;;;;43.67;23.17;;;5.30;99.90;;;;;;5110280;28;20036;-58
2022/01/27 05:39:38;;;;;;;41.25;21.33;;;7.00;99.90;;;;;;5092050;28;20055;-58
2022/01/27 05:42:04;;;;;;;42.30;20.13;;;5.10;99.90;;;;;;5092331;28;20429;-58
2022/01/27 05:44:31;;;;;;;53.33;23.48;;;5.00;99.90;;;;;;5092468;28;20109;-58
2022/01/27 05:46:57;;;;;;;49.58;22.30;;;6.30;99.90;;;;;;5110695;28;20047;-58
2022/01/27 05:49:23;;;;;;;49.88;23.52;;;5.20;99.90;;;;;;5110284;28;20507;-58
2022/01/27 05:51:49;;;;;;;51.65;23.13;;;5.00;99.90;;;;;;5110325;28;20405;-58
2022/01/27 05:54:15;;;;;;;50.17;22.08;;;4.90;99.90;;;;;;5110150;28;20035;-58
2022/01/27 05:56:41;;;;;;;52.95;24.77;;;4.90;99.90;;;;;;5110221;28;20051;-58
2022/01/27 05:59:07;;;;;;;59.53;25.90;;;4.90;99.90;;;;;;5109917;28;20088;-58
2022/01/27 06:01:32;;;;;;;58.47;21.45;;;4.90;99.90;;;;;;5092083;28;20051;-58
2022/01/27 06:03:58;;;;;;;56.30;25.20;;;4.90;99.90;;;;;;5110430;28;20043;-58
2022/01/27 06:06:24;;;;;;;54.45;24.20;;;5.80;99.90;;;;;;5109842;28;20122;-59
2022/01/27 06:08:49;;;;;;;65.30;26.35;;;6.50;99.90;;;;;;5091720;28;20051;-58
2022/01/27 06:11:15;;;;;;;52.95;23.40;;;4.70;99.90;;;;;;5109730;28;20089;-59
2022/01/27 06:13:41;;;;;;;73.00;26.70;;;4.90;99.90;;;;;;5110101;28;20043;-58
2022/01/27 06:16:11;;;;;;;61.65;23.65;;;5.60;99.90;;;;;;5110140;28;20040;-59
2022/01/27 06:18:38;;;;;;;52.53;20.30;;;4.90;99.90;;;;;;5110356;28;20083;-59
2022/01/27 06:21:05;;;;;;;56.60;23.98;;;5.10;99.90;;;;;;5091703;28;20043;-59
2022/01/27 06:23:31;;;;;;;57.40;23.15;;;5.00;99.90;;;;;;5110312;28;20071;-58
2022/01/27 06:26:01;;;;;;;53.90;21.58;;;5.00;99.90;;;;;;5110148;28;20064;-59
2022/01/27 06:28:27;;;;;;;72.13;25.63;;;5.00;99.90;;;;;;5110123;28;20055;-59
2022/01/27 06:30:53;;;;;;;64.18;22.80;;;5.00;99.90;;;;;;5110049;28;20031;-59
2022/01/27 06:33:18;;;;;;;59.78;25.13;;;5.00;99.90;;;;;;5109936;28;20502;-59
2022/01/27 06:35:44;;;;;;;59.42;24.98;;;5.00;99.90;;;;;;5110253;28;20396;-59
2022/01/27 06:38:10;;;;;;;56.05;19.95;;;6.00;99.90;;;;;;5112685;28;20176;-59
2022/01/27 06:40:35;;;;;;;70.50;23.83;;;5.30;99.90;;;;;;5095536;28;20054;-59
2022/01/27 06:43:01;;;;;;;52.47;22.30;;;5.10;99.90;;;;;;5113904;28;20079;-59
2022/01/27 06:45:27;;;;;;;62.75;21.95;;;5.10;99.90;;;;;;5113724;28;20177;-59
2022/01/27 06:47:53;;;;;;;53.95;21.75;;;5.10;99.90;;;;;;5113907;28;20046;-59
2022/01/27 06:50:19;;;;;;;52.58;19.25;;;5.10;99.90;;;;;;5113193;28;20659;-59
2022/01/27 06:52:45;;;;;;;43.35;16.55;;;5.20;99.90;;;;;;5113773;28;20036;-59
2022/01/27 06:55:12;;;;;;;50.03;21.17;;;5.20;99.90;;;;;;5113719;28;20126;-58
2022/01/27 06:57:38;;;;;;;40.40;16.77;;;5.40;99.90;;;;;;5113864;28;20047;-59
2022/01/27 07:00:06;;;;;;;48.38;20.42;;;5.20;99.90;;;;;;5113889;28;20126;-59
2022/01/27 07:02:35;;;;;;;53.13;20.17;;;5.20;99.90;;;;;;5113371;28;20131;-59
2022/01/27 07:05:01;;;;;;;54.15;20.30;;;5.50;99.90;;;;;;5095390;28;20388;-59
2022/01/27 07:07:27;;;;;;;47.40;19.00;;;5.30;99.90;;;;;;5094742;28;20119;-59
2022/01/27 07:09:52;;;;;;;33.83;14.55;;;5.30;99.90;;;;;;5113166;28;20123;-59
2022/01/27 07:12:18;;;;;;;43.55;17.10;;;5.90;99.90;;;;;;5094631;28;20138;-59
2022/01/27 07:14:44;;;;;;;29.95;13.07;;;5.30;99.90;;;;;;5094677;28;20130;-59
2022/01/27 07:17:09;;;;;;;50.92;18.95;;;5.40;99.90;;;;;;5094804;28;20050;-59
2022/01/27 07:19:35;;;;;;;36.20;14.93;;;5.40;99.90;;;;;;5094573;28;20051;-59
2022/01/27 07:22:01;;;;;;;45.58;17.73;;;5.30;99.90;;;;;;5094701;28;20049;-59
2022/01/27 07:24:27;;;;;;;47.45;17.13;;;5.50;99.90;;;;;;5112649;28;20063;-59
2022/01/27 07:26:52;;;;;;;33.92;14.38;;;5.40;99.90;;;;;;5112970;28;20050;-59
2022/01/27 07:29:18;;;;;;;26.55;13.20;;;5.50;99.90;;;;;;5094414;28;20047;-59
2022/01/27 07:31:44;;;;;;;35.60;14.98;;;5.90;99.90;;;;;;5112778;28;20044;-59
2022/01/27 07:34:10;;;;;;;35.15;13.85;;;5.50;99.90;;;;;;5112692;28;20130;-59
2022/01/27 07:36:35;;;;;;;32.92;14.80;;;5.60;99.90;;;;;;5112746;28;20118;-59
2022/01/27 07:39:02;;;;;;;35.28;14.38;;;5.40;99.90;;;;;;5112490;28;20036;-59
2022/01/27 07:41:28;;;;;;;28.17;11.90;;;5.40;99.90;;;;;;5112777;28;20149;-59
2022/01/27 07:43:53;;;;;;;27.33;13.07;;;6.30;99.90;;;;;;5094741;28;20580;-59
2022/01/27 07:46:19;;;;;;;36.50;13.90;;;5.90;99.90;;;;;;5112361;28;20043;-59
2022/01/27 07:48:45;;;;;;;32.80;13.23;;;5.70;99.90;;;;;;5112218;28;20431;-59
2022/01/27 07:51:11;;;;;;;30.15;13.27;;;5.70;99.90;;;;;;5112165;28;20039;-59
2022/01/27 07:53:38;;;;;;;30.88;12.40;;;5.70;99.90;;;;;;5111868;28;20039;-47
2022/01/27 07:56:04;;;;;;;37.53;13.30;;;5.70;99.90;;;;;;5091081;28;20042;-46
2022/01/27 07:58:38;;;;;;;33.65;11.88;;;5.80;99.90;;;;;;5110403;28;20048;-45
2022/01/27 08:01:04;;;;;;;27.50;11.50;;;5.80;99.90;;;;;;5111390;28;20047;-56
2022/01/27 08:03:29;;;;;;;27.10;12.55;;;5.80;99.90;;;;;;5076336;28;20099;-48
2022/01/27 08:05:55;;;;;;;27.98;12.27;;;5.80;99.90;;;;;;5093683;28;20036;-56
2022/01/27 08:08:21;;;;;;;30.35;12.18;;;5.80;99.90;;;;;;5111358;28;20452;-56
2022/01/27 08:10:48;;;;;;;29.77;11.90;;;5.70;99.90;;;;;;5113471;28;20369;-46
2022/01/27 08:13:13;;;;;;;27.60;11.75;;;6.20;99.90;;;;;;5113503;28;20149;-51
2022/01/27 08:15:39;;;;;;;34.22;13.25;;;5.90;99.90;;;;;;5111859;28;20489;-45
2022/01/27 08:18:05;;;;;;;38.67;14.52;;;6.20;99.90;;;;;;5111346;28;20165;-46
2022/01/27 08:20:31;;;;;;;40.75;14.90;;;5.90;99.90;;;;;;5112049;28;20054;-52
2022/01/27 08:22:57;;;;;;;39.03;14.23;;;6.00;99.90;;;;;;5112060;28;20039;-51
2022/01/27 08:25:24;;;;;;;49.85;17.35;;;6.30;99.90;;;;;;5109948;28;20075;-53
2022/01/27 08:27:53;;;;;;;39.50;14.93;;;6.00;99.90;;;;;;5094655;28;20059;-51
2022/01/27 08:30:21;;;;;;;43.70;16.17;;;6.10;99.90;;;;;;5108032;28;20490;-50
2022/01/27 08:32:49;;;;;;;47.65;16.73;;;6.30;99.90;;;;;;5073200;28;20107;-50
2022/01/27 08:35:20;;;;;;;70.93;18.08;;;6.20;99.90;;;;;;5107851;28;20100;-52
2022/01/27 08:37:45;;;;;;;53.40;17.02;;;7.00;99.90;;;;;;5107044;28;20100;-49
2022/01/27 08:40:14;;;;;;;50.58;19.05;;;7.10;99.90;;;;;;5108984;28;20409;-51
2022/01/27 08:42:41;;;;;;;46.60;16.33;;;6.30;99.90;;;;;;5107793;28;20469;-51
2022/01/27 08:45:12;;;;;;;50.70;17.65;;;6.40;99.90;;;;;;5091733;28;20050;-51
2022/01/27 08:47:38;;;;;;;42.60;17.05;;;6.30;99.90;;;;;;5108018;28;20043;-48
2022/01/27 08:50:05;;;;;;;50.25;19.52;;;6.50;99.90;;;;;;5090196;28;20427;-46
2022/01/27 08:52:31;;;;;;;42.95;15.40;;;6.50;99.90;;;;;;5108242;28;20102;-46
2022/01/27 08:54:57;;;;;;;47.75;17.42;;;6.60;99.90;;;;;;5108474;28;20791;-48
2022/01/27 08:57:23;;;;;;;49.65;15.68;;;7.10;99.90;;;;;;5108535;28;20427;-49
2022/01/27 08:59:51;;;;;;;38.55;12.90;;;6.80;99.90;;;;;;5107369;28;20447;-52
2022/01/27 09:02:17;;;;;;;40.78;15.55;;;6.70;99.90;;;;;;5107978;28;20050;-50
2022/01/27 09:04:42;;;;;;;31.50;11.95;;;6.70;99.90;;;;;;5107820;28;20118;-60
2022/01/27 09:07:08;;;;;;;39.55;12.02;;;7.10;99.90;;;;;;5106779;28;20645;-53
2022/01/27 09:09:34;;;;;;;43.83;14.75;;;6.80;99.90;;;;;;5089251;28;20039;-52
2022/01/27 09:12:00;;;;;;;43.53;12.35;;;7.70;99.90;;;;;;5107854;28;20374;-52
2022/01/27 09:14:31;;;;;;;38.83;15.10;;;7.90;99.90;;;;;;5107815;28;20042;-48
2022/01/27 09:17:14;;;;;;;41.65;13.60;;;6.80;99.90;;;;;;5089658;28;20032;-47
2022/01/27 09:19:42;;;;;;;45.22;13.63;;;7.10;99.90;;;;;;5107236;28;20505;-45
2022/01/27 09:22:15;;;;;;;38.78;12.98;;;7.90;99.90;;;;;;5107395;28;20043;-46
2022/01/27 09:27:15;;;;;;;39.13;12.98;;;8.00;99.90;;;;;;5097317;28;20051;-48
2022/01/27 09:29:41;;;;;;;42.88;11.70;;;8.00;99.90;;;;;;5107341;28;20381;-52
2022/01/27 09:32:07;;;;;;;34.35;11.32;;;6.90;99.90;;;;;;5107237;28;20044;-45
2022/01/27 09:34:34;;;;;;;33.50;10.68;;;6.90;99.90;;;;;;5107914;28;20035;-53
2022/01/27 09:37:02;;;;;;;40.00;10.32;;;7.40;99.90;;;;;;5108565;28;20058;-52
2022/01/27 09:39:32;;;;;;;40.58;10.60;;;6.90;99.90;;;;;;5107918;28;20058;-49
2022/01/27 09:41:59;;;;;;;44.47;10.23;;;7.00;99.90;;;;;;5107767;28;20047;-51
2022/01/27 09:44:28;;;;;;;36.28;10.85;;;7.00;99.90;;;;;;5106727;28;20508;-45
2022/01/27 09:46:57;;;;;;;38.08;10.25;;;7.10;99.90;;;;;;5088648;28;20047;-48
2022/01/27 09:49:32;;;;;;;29.85;8.60;;;7.60;99.90;;;;;;5089600;28;20127;-55
2022/01/27 09:51:59;;;;;;;29.75;9.20;;;7.30;99.90;;;;;;5110462;28;20443;-47
2022/01/27 09:54:25;;;;;;;27.30;8.77;;;8.00;99.90;;;;;;5107706;28;20062;-49
2022/01/27 09:56:53;;;;;;;30.95;7.93;;;7.30;99.90;;;;;;5108157;28;20036;-48
2022/01/27 09:59:19;;;;;;;32.55;7.80;;;7.70;99.90;;;;;;5075639;28;20129;-46
2022/01/27 10:02:19;;;;;;;35.50;8.25;;;7.30;99.90;;;;;;5109617;28;20115;-45
2022/01/27 10:04:47;;;;;;;33.17;7.88;;;8.10;99.90;;;;;;5064944;28;20056;-45
2022/01/27 10:07:20;;;;;;;30.65;6.70;;;8.00;99.90;;;;;;5109553;28;20389;-46
2022/01/27 10:09:56;;;;;;;29.35;6.25;;;8.40;99.90;;;;;;5091829;28;20096;-45
2022/01/27 10:12:40;;;;;;;23.05;5.35;;;7.50;99.90;;;;;;5114204;28;20046;-45
2022/01/27 10:15:11;;;;;;;29.17;7.78;;;7.60;99.90;;;;;;5114801;28;20048;-42
2022/01/27 10:17:39;;;;;;;23.67;6.50;;;7.60;99.90;;;;;;5096774;28;20079;-43
2022/01/27 10:20:19;;;;;;;32.58;7.25;;;7.60;99.90;;;;;;5115374;28;20031;-42
2022/01/27 10:23:10;;;;;;;30.73;6.25;;;8.50;99.90;;;;;;5097985;28;20073;-47
2022/01/27 10:25:46;;;;;;;24.63;6.57;;;7.70;99.90;;;;;;5116374;28;20100;-44
2022/01/27 10:28:36;;;;;;;19.65;5.13;;;7.70;99.90;;;;;;5115208;28;20769;-44
2022/01/27 10:31:19;;;;;;;21.25;5.55;;;7.70;99.90;;;;;;5115011;28;20058;-45
2022/01/27 10:33:53;;;;;;;28.48;5.75;;;7.70;99.90;;;;;;5115031;28;20115;-45
2022/01/27 10:36:45;;;;;;;24.52;6.43;;;7.70;99.90;;;;;;5116008;28;20392;-45
2022/01/27 10:39:15;;;;;;;20.98;5.53;;;7.70;99.90;;;;;;5112163;28;20040;-45
2022/01/27 10:41:57;;;;;;;22.65;5.70;;;7.80;99.90;;;;;;5114408;28;20485;-48
2022/01/27 10:44:33;;;;;;;23.88;5.75;;;7.70;99.90;;;;;;5115471;28;20032;-47
2022/01/27 10:47:11;;;;;;;27.48;6.65;;;7.70;99.90;;;;;;5113598;28;20035;-47
2022/01/27 10:49:43;;;;;;;26.75;6.53;;;7.70;99.90;;;;;;5096355;28;20048;-46
2022/01/27 10:52:16;;;;;;;19.53;4.80;;;8.40;99.90;;;;;;5097289;28;20051;-46
2022/01/27 10:54:49;;;;;;;25.20;5.57;;;7.80;99.90;;;;;;5114354;28;20070;-43
2022/01/27 10:57:16;;;;;;;19.80;4.70;;;7.80;99.90;;;;;;5113284;28;20114;-45
2022/01/27 10:59:43;;;;;;;24.65;5.35;;;7.90;99.90;;;;;;5095001;28;20039;-50
2022/01/27 11:02:13;;;;;;;20.85;5.22;;;7.90;99.90;;;;;;5113232;28;20079;-44
2022/01/27 11:04:43;;;;;;;36.67;6.60;;;7.80;99.90;;;;;;5113179;28;20043;-44
2022/01/27 11:07:14;;;;;;;18.92;3.80;;;8.00;99.90;;;;;;5112429;28;20051;-45
2022/01/27 11:09:44;;;;;;;21.75;5.22;;;8.00;99.90;;;;;;5113434;28;20123;-43
2022/01/27 11:12:17;;;;;;;27.83;6.32;;;8.30;99.90;;;;;;5112911;28;20082;-43
2022/01/27 11:14:47;;;;;;;20.90;5.20;;;7.90;99.90;;;;;;5113149;28;20039;-45
2022/01/27 11:17:18;;;;;;;20.83;4.28;;;7.60;99.90;;;;;;5094824;28;20093;-44
2022/01/27 11:27:58;;;;;;;23.92;5.05;;;7.90;99.90;;;;;;5113130;28;20134;-46
2022/01/27 11:31:03;;;;;;;29.67;5.63;;;7.90;99.90;;;;;;5112811;28;20142;-44
2022/01/27 11:33:34;;;;;;;17.75;5.60;;;7.90;99.90;;;;;;5112572;28;20498;-41
2022/01/27 11:36:08;;;;;;;16.40;3.90;;;8.80;99.90;;;;;;5111794;28;20104;-48
2022/01/27 11:38:34;;;;;;;29.63;4.40;;;8.20;99.90;;;;;;5112361;28;20036;-46
2022/01/27 11:40:59;;;;;;;21.02;4.10;;;8.60;99.90;;;;;;5113842;28;20049;-49
2022/01/27 11:43:35;;;;;;;31.33;5.32;;;8.20;99.90;;;;;;5112952;28;20134;-45
2022/01/27 11:46:16;;;;;;;21.77;3.83;;;8.20;99.90;;;;;;5112440;28;20052;-44
2022/01/27 11:48:42;;;;;;;21.70;3.33;;;9.30;99.90;;;;;;5112922;28;20079;-44
2022/01/27 11:51:12;;;;;;;30.02;6.95;;;8.20;99.90;;;;;;5112248;28;20151;-46
2022/01/27 11:53:43;;;;;;;23.15;4.38;;;8.20;99.90;;;;;;5113047;28;20042;-49
2022/01/27 11:56:23;;;;;;;18.95;3.13;;;8.10;99.90;;;;;;5094299;28;20120;-50
2022/01/27 11:58:58;;;;;;;20.25;2.88;;;8.10;99.90;;;;;;5112658;28;20074;-39
2022/01/27 12:01:28;;;;;;;20.80;3.13;;;8.10;99.90;;;;;;5112712;28;20054;-43
2022/01/27 12:04:06;;;;;;;21.58;3.25;;;8.20;99.90;;;;;;5112472;28;20103;-43
2022/01/27 12:06:37;;;;;;;23.55;4.15;;;7.90;99.90;;;;;;5112429;28;20054;-45
2022/01/27 12:09:20;;;;;;;25.67;3.70;;;8.20;99.90;;;;;;5112730;28;20071;-43
2022/01/27 12:11:50;;;;;;;22.42;4.40;;;8.10;99.90;;;;;;5113497;28;20371;-41
2022/01/27 12:14:21;;;;;;;20.20;3.25;;;8.30;99.90;;;;;;5094160;28;20040;-45
2022/01/27 12:17:06;;;;;;;22.02;2.97;;;9.10;99.90;;;;;;5111886;28;20039;-41
2022/01/27 12:19:58;;;;;;;22.90;3.58;;;9.40;99.90;;;;;;5111540;28;20040;-44
2022/01/27 12:22:52;;;;;;;20.80;3.00;;;8.40;99.90;;;;;;5111794;28;20046;-40
2022/01/27 12:25:45;;;;;;;19.13;2.92;;;8.50;99.90;;;;;;5093065;28;20087;-43
2022/01/27 12:28:11;;;;;;;22.88;3.33;;;8.50;99.90;;;;;;5111212;28;20044;-42
2022/01/27 12:30:37;;;;;;;16.65;2.53;;;8.50;99.90;;;;;;5111858;28;20043;-44
2022/01/27 12:33:03;;;;;;;18.00;2.63;;;8.40;99.90;;;;;;5111801;28;20130;-39
2022/01/27 12:35:28;;;;;;;24.58;3.22;;;8.40;99.90;;;;;;5111219;28;20130;-48
2022/01/27 12:37:57;;;;;;;18.00;2.70;;;8.30;99.90;;;;;;5111287;28;20044;-46
2022/01/27 12:40:29;;;;;;;19.35;2.85;;;8.30;99.90;;;;;;5111361;28;20047;-44
2022/01/27 12:43:01;;;;;;;15.63;3.03;;;8.20;99.90;;;;;;5111200;28;20043;-43
2022/01/27 12:45:32;;;;;;;24.90;3.40;;;8.20;99.90;;;;;;5092775;28;20494;-45
2022/01/27 12:48:04;;;;;;;22.75;2.42;;;8.20;99.90;;;;;;5093469;28;20382;-42
2022/01/27 12:50:30;;;;;;;16.23;2.20;;;8.20;99.90;;;;;;5111478;28;20379;-43
2022/01/27 12:53:01;;;;;;;25.30;2.55;;;8.20;99.90;;;;;;5110815;28;20108;-43
2022/01/27 12:55:32;;;;;;;22.27;3.25;;;8.10;99.90;;;;;;5111328;28;20061;-40
2022/01/27 12:58:02;;;;;;;28.17;3.15;;;8.10;99.90;;;;;;5092739;28;20049;-40
2022/01/27 13:00:35;;;;;;;23.48;3.65;;;8.40;99.90;;;;;;5111510;28;20130;-42
2022/01/27 13:03:02;;;;;;;20.60;3.78;;;8.00;99.90;;;;;;5111209;28;20058;-43
2022/01/27 13:05:45;;;;;;;22.05;4.47;;;8.00;99.90;;;;;;5110729;28;20039;-42
2022/01/27 13:08:13;;;;;;;22.30;3.08;;;8.00;99.90;;;;;;5110480;28;20132;-41
2022/01/27 13:10:44;;;;;;;16.88;3.38;;;8.00;99.90;;;;;;5092209;28;20407;-45
2022/01/27 13:13:15;;;;;;;19.05;2.15;;;8.00;99.90;;;;;;5110424;28;20046;-42
2022/01/27 13:15:41;;;;;;;23.08;2.40;;;8.00;99.90;;;;;;5092502;28;20132;-46
2022/01/27 13:18:13;;;;;;;16.50;2.47;;;8.10;99.90;;;;;;5110302;28;20092;-42
2022/01/27 13:20:50;;;;;;;22.88;2.28;;;8.10;99.90;;;;;;5110796;28;20139;-45
2022/01/27 13:25:48;;;;;;;25.13;3.45;;;8.60;99.90;;;;;;5110455;28;20054;-44
2022/01/27 13:28:24;;;;;;;21.75;2.65;;;8.20;99.90;;;;;;5110073;28;20054;-44
2022/01/27 13:30:54;;;;;;;20.95;3.75;;;8.90;99.90;;;;;;5110516;28;20177;-41
2022/01/27 13:33:22;;;;;;;18.63;3.22;;;8.20;99.90;;;;;;5109919;28;20054;-44
2022/01/27 13:35:49;;;;;;;20.55;2.22;;;8.70;99.90;;;;;;5110217;28;20040;-46
2022/01/27 13:38:25;;;;;;;20.30;2.25;;;8.20;99.90;;;;;;5110119;28;20043;-45
2022/01/27 13:41:16;;;;;;;18.00;2.20;;;8.20;99.90;;;;;;5110663;28;20107;-42